sensor_id;sensor_type;location;lat;lon;timestamp;pressure;altitude;pressure_sealevel;temperature;humidity
69784;BME280;57054;51.978;4.498;2023-05-19T00:00:42;102788.09;;;10.40;78.28
69784;BME280;57054;51.978;4.498;2023-05-19T00:03:09;102788.94;;;10.40;78.41
69784;BME280;57054;51.978;4.498;2023-05-19T00:05:36;102793.34;;;10.38;78.61
69784;BME280;57054;51.978;4.498;2023-05-19T00:08:06;102794.31;;;10.20;79.29
69784;BME280;57054;51.978;4.498;2023-05-19T00:10:35;102790.91;;;10.12;79.55
69784;BME280;57054;51.978;4.498;2023-05-19T00:13:00;102790.06;;;10.07;79.60
69784;BME280;57054;51.978;4.498;2023-05-19T00:15:26;102786.59;;;10.02;80.07
69784;BME280;57054;51.978;4.498;2023-05-19T00:17:51;102782.28;;;9.99;80.49
69784;BME280;57054;51.978;4.498;2023-05-19T00:20:20;102786.66;;;9.95;80.47
69784;BME280;57054;51.978;4.498;2023-05-19T00:22:46;102786.69;;;9.89;81.01
69784;BME280;57054;51.978;4.498;2023-05-19T00:25:11;102785.84;;;9.87;81.28
69784;BME280;57054;51.978;4.498;2023-05-19T00:27:37;102784.13;;;9.85;80.93
69784;BME280;57054;51.978;4.498;2023-05-19T00:30:02;102785.03;;;9.74;81.34
69784;BME280;57054;51.978;4.498;2023-05-19T00:32:28;102791.97;;;9.80;81.87
69784;BME280;57054;51.978;4.498;2023-05-19T00:34:53;102788.50;;;9.76;81.01
69784;BME280;57054;51.978;4.498;2023-05-19T00:37:18;102791.97;;;9.78;81.19
69784;BME280;57054;51.978;4.498;2023-05-19T00:39:44;102787.66;;;9.74;81.71
69784;BME280;57054;51.978;4.498;2023-05-19T00:42:10;102786.81;;;9.69;81.70
69784;BME280;57054;51.978;4.498;2023-05-19T00:44:39;102797.38;;;9.57;82.11
69784;BME280;57054;51.978;4.498;2023-05-19T00:47:06;102793.00;;;9.60;82.06
69784;BME280;57054;51.978;4.498;2023-05-19T00:49:31;102789.53;;;9.54;82.24
69784;BME280;57054;51.978;4.498;2023-05-19T00:52:00;102785.19;;;9.50;82.39
69784;BME280;57054;51.978;4.498;2023-05-19T00:54:25;102785.09;;;9.62;82.10
69784;BME280;57054;51.978;4.498;2023-05-19T00:56:52;102781.63;;;9.60;81.75
69784;BME280;57054;51.978;4.498;2023-05-19T00:59:18;102783.44;;;9.50;82.20
69784;BME280;57054;51.978;4.498;2023-05-19T01:01:44;102776.47;;;9.51;82.24
69784;BME280;57054;51.978;4.498;2023-05-19T01:04:19;102775.59;;;9.46;82.68
69784;BME280;57054;51.978;4.498;2023-05-19T01:06:49;102778.25;;;9.44;82.59
69784;BME280;57054;51.978;4.498;2023-05-19T01:09:20;102773.03;;;9.43;82.89
69784;BME280;57054;51.978;4.498;2023-05-19T01:11:45;102778.28;;;9.35;82.87
69784;BME280;57054;51.978;4.498;2023-05-19T01:14:11;102777.44;;;9.28;83.46
69784;BME280;57054;51.978;4.498;2023-05-19T01:16:39;102780.03;;;9.31;83.12
69784;BME280;57054;51.978;4.498;2023-05-19T01:19:43;102780.94;;;9.27;83.45
69784;BME280;57054;51.978;4.498;2023-05-19T01:22:39;102773.97;;;9.26;83.35
69784;BME280;57054;51.978;4.498;2023-05-19T01:30:41;102770.47;;;9.32;83.33
69784;BME280;57054;51.978;4.498;2023-05-19T01:33:10;102768.72;;;9.29;83.37
69784;BME280;57054;51.978;4.498;2023-05-19T01:35:36;102766.94;;;9.31;83.27
69784;BME280;57054;51.978;4.498;2023-05-19T01:38:03;102767.00;;;9.28;83.48
69784;BME280;57054;51.978;4.498;2023-05-19T01:40:29;102767.84;;;9.29;83.17
69784;BME280;57054;51.978;4.498;2023-05-19T01:42:57;102760.88;;;9.29;83.54
69784;BME280;57054;51.978;4.498;2023-05-19T01:45:25;102762.56;;;9.35;83.02
69784;BME280;57054;51.978;4.498;2023-05-19T01:47:56;102767.00;;;9.27;83.48
69784;BME280;57054;51.978;4.498;2023-05-19T01:50:22;102763.53;;;9.20;83.39
69784;BME280;57054;51.978;4.498;2023-05-19T01:52:47;102756.56;;;9.20;83.63
69784;BME280;57054;51.978;4.498;2023-05-19T01:55:13;102763.53;;;9.23;83.35
69784;BME280;57054;51.978;4.498;2023-05-19T02:00:40;102753.06;;;9.23;83.68
69784;BME280;57054;51.978;4.498;2023-05-19T02:03:31;102747.78;;;9.28;83.62
69784;BME280;57054;51.978;4.498;2023-05-19T02:09:06;102753.91;;;9.22;83.56
69784;BME280;57054;51.978;4.498;2023-05-19T02:14:26;102744.38;;;9.16;83.53
69784;BME280;57054;51.978;4.498;2023-05-19T02:16:56;102741.75;;;9.15;84.01
69784;BME280;57054;51.978;4.498;2023-05-19T02:19:31;102744.38;;;9.16;83.80
69784;BME280;57054;51.978;4.498;2023-05-19T02:21:57;102747.03;;;9.09;84.34
69784;BME280;57054;51.978;4.498;2023-05-19T02:24:23;102740.03;;;9.15;84.00
69784;BME280;57054;51.978;4.498;2023-05-19T02:26:52;102739.13;;;9.15;83.99
69784;BME280;57054;51.978;4.498;2023-05-19T02:29:19;102735.66;;;9.16;84.05
69784;BME280;57054;51.978;4.498;2023-05-19T02:31:44;102741.75;;;9.15;83.86
69784;BME280;57054;51.978;4.498;2023-05-19T02:34:10;102740.91;;;9.16;83.79
69784;BME280;57054;51.978;4.498;2023-05-19T02:36:37;102743.50;;;9.17;83.65
69784;BME280;57054;51.978;4.498;2023-05-19T02:39:02;102735.66;;;9.20;83.56
69784;BME280;57054;51.978;4.498;2023-05-19T02:41:29;102733.91;;;9.19;83.38
69784;BME280;57054;51.978;4.498;2023-05-19T02:43:54;102726.91;;;9.21;83.39
69784;BME280;57054;51.978;4.498;2023-05-19T02:46:20;102731.28;;;9.18;83.51
69784;BME280;57054;51.978;4.498;2023-05-19T02:48:45;102731.28;;;9.21;83.14
69784;BME280;57054;51.978;4.498;2023-05-19T02:51:11;102729.53;;;9.23;83.15
69784;BME280;57054;51.978;4.498;2023-05-19T02:53:36;102724.31;;;9.25;82.65
69784;BME280;57054;51.978;4.498;2023-05-19T02:56:02;102727.81;;;9.19;82.46
69784;BME280;57054;51.978;4.498;2023-05-19T02:58:27;102734.75;;;9.21;82.78
69784;BME280;57054;51.978;4.498;2023-05-19T03:00:54;102728.69;;;9.15;82.81
69784;BME280;57054;51.978;4.498;2023-05-19T03:03:20;102729.59;;;9.12;83.22
69784;BME280;57054;51.978;4.498;2023-05-19T03:05:45;102729.59;;;9.12;83.19
69784;BME280;57054;51.978;4.498;2023-05-19T03:08:11;102725.25;;;9.10;83.02
69784;BME280;57054;51.978;4.498;2023-05-19T03:10:37;102720.88;;;9.07;83.14
69784;BME280;57054;51.978;4.498;2023-05-19T03:13:02;102719.16;;;9.06;83.50
69784;BME280;57054;51.978;4.498;2023-05-19T03:15:27;102718.31;;;8.99;83.84
69784;BME280;57054;51.978;4.498;2023-05-19T03:17:53;102723.56;;;8.93;84.20
69784;BME280;57054;51.978;4.498;2023-05-19T03:20:19;102721.81;;;8.94;84.21
69784;BME280;57054;51.978;4.498;2023-05-19T03:22:44;102719.22;;;8.92;83.85
69784;BME280;57054;51.978;4.498;2023-05-19T03:25:09;102724.44;;;8.92;83.89
69784;BME280;57054;51.978;4.498;2023-05-19T03:27:35;102720.09;;;8.88;84.36
69784;BME280;57054;51.978;4.498;2023-05-19T03:30:00;102713.16;;;8.82;84.49
69784;BME280;57054;51.978;4.498;2023-05-19T03:32:25;102710.53;;;8.76;84.59
69784;BME280;57054;51.978;4.498;2023-05-19T03:34:51;102706.22;;;8.77;84.89
69784;BME280;57054;51.978;4.498;2023-05-19T03:37:16;102704.47;;;8.76;85.02
69784;BME280;57054;51.978;4.498;2023-05-19T03:39:42;102718.38;;;8.79;84.97
69784;BME280;57054;51.978;4.498;2023-05-19T03:42:07;102716.66;;;8.74;84.87
69784;BME280;57054;51.978;4.498;2023-05-19T03:44:33;102715.81;;;8.70;85.36
69784;BME280;57054;51.978;4.498;2023-05-19T03:46:58;102714.91;;;8.73;85.52
69784;BME280;57054;51.978;4.498;2023-05-19T03:49:23;102711.44;;;8.74;85.65
69784;BME280;57054;51.978;4.498;2023-05-19T03:51:49;102710.56;;;8.73;85.54
69784;BME280;57054;51.978;4.498;2023-05-19T03:54:15;102720.13;;;8.73;85.60
69784;BME280;57054;51.978;4.498;2023-05-19T03:56:41;102721.00;;;8.75;85.55
69784;BME280;57054;51.978;4.498;2023-05-19T03:59:07;102717.53;;;8.76;85.20
69784;BME280;57054;51.978;4.498;2023-05-19T04:01:34;102722.75;;;8.76;85.36
69784;BME280;57054;51.978;4.498;2023-05-19T04:04:01;102721.00;;;8.76;85.31
69784;BME280;57054;51.978;4.498;2023-05-19T04:06:26;102720.16;;;8.70;85.33
69784;BME280;57054;51.978;4.498;2023-05-19T04:08:51;102716.69;;;8.66;86.13
69784;BME280;57054;51.978;4.498;2023-05-19T04:11:17;102720.16;;;8.70;86.22
69784;BME280;57054;51.978;4.498;2023-05-19T04:13:44;102714.91;;;8.71;86.18
69784;BME280;57054;51.978;4.498;2023-05-19T04:16:09;102721.03;;;8.69;86.30
69784;BME280;57054;51.978;4.498;2023-05-19T04:18:35;102718.41;;;8.65;86.71
69784;BME280;57054;51.978;4.498;2023-05-19T04:21:00;102721.91;;;8.63;86.45
69784;BME280;57054;51.978;4.498;2023-05-19T04:23:26;102728.00;;;8.63;86.67
69784;BME280;57054;51.978;4.498;2023-05-19T04:25:51;102733.22;;;8.63;86.61
69784;BME280;57054;51.978;4.498;2023-05-19T04:28:18;102728.03;;;8.60;86.66
69784;BME280;57054;51.978;4.498;2023-05-19T04:30:43;102729.75;;;8.60;87.28
69784;BME280;57054;51.978;4.498;2023-05-19T04:33:11;102728.03;;;8.59;87.69
69784;BME280;57054;51.978;4.498;2023-05-19T04:35:37;102728.00;;;8.67;87.13
69784;BME280;57054;51.978;4.498;2023-05-19T04:38:04;102725.34;;;8.73;86.78
69784;BME280;57054;51.978;4.498;2023-05-19T04:40:29;102732.34;;;8.63;87.49
69784;BME280;57054;51.978;4.498;2023-05-19T04:42:55;102727.16;;;8.55;88.06
69784;BME280;57054;51.978;4.498;2023-05-19T04:45:21;102728.88;;;8.59;88.26
69784;BME280;57054;51.978;4.498;2023-05-19T04:47:47;102724.53;;;8.60;88.57
69784;BME280;57054;51.978;4.498;2023-05-19T04:50:13;102721.91;;;8.64;88.40
69784;BME280;57054;51.978;4.498;2023-05-19T04:52:39;102729.72;;;8.69;88.27
69784;BME280;57054;51.978;4.498;2023-05-19T04:55:07;102734.09;;;8.64;88.70
69784;BME280;57054;51.978;4.498;2023-05-19T04:57:32;102732.38;;;8.66;89.10
69784;BME280;57054;51.978;4.498;2023-05-19T04:59:57;102739.31;;;8.69;89.01
69784;BME280;57054;51.978;4.498;2023-05-19T05:02:25;102741.06;;;8.70;89.17
69784;BME280;57054;51.978;4.498;2023-05-19T05:04:51;102734.94;;;8.72;89.09
69784;BME280;57054;51.978;4.498;2023-05-19T05:07:19;102733.19;;;8.73;89.19
69784;BME280;57054;51.978;4.498;2023-05-19T05:09:46;102741.91;;;8.78;88.79
69784;BME280;57054;51.978;4.498;2023-05-19T05:12:13;102749.72;;;8.78;89.12
69784;BME280;57054;51.978;4.498;2023-05-19T05:14:39;102745.41;;;8.74;89.65
69784;BME280;57054;51.978;4.498;2023-05-19T05:17:04;102750.63;;;8.77;89.99
69784;BME280;57054;51.978;4.498;2023-05-19T05:19:31;102745.41;;;8.74;90.66
69784;BME280;57054;51.978;4.498;2023-05-19T05:21:56;102741.91;;;8.79;90.22
69784;BME280;57054;51.978;4.498;2023-05-19T05:24:22;102738.41;;;8.80;90.10
69784;BME280;57054;51.978;4.498;2023-05-19T05:26:48;102748.84;;;8.85;90.17
69784;BME280;57054;51.978;4.498;2023-05-19T05:29:13;102750.56;;;8.92;89.71
69784;BME280;57054;51.978;4.498;2023-05-19T05:31:39;102752.31;;;8.87;90.44
69784;BME280;57054;51.978;4.498;2023-05-19T05:34:04;102754.94;;;8.87;90.57
69784;BME280;57054;51.978;4.498;2023-05-19T05:36:29;102756.66;;;8.94;90.54
69784;BME280;57054;51.978;4.498;2023-05-19T05:38:56;102756.63;;;9.02;90.50
69784;BME280;57054;51.978;4.498;2023-05-19T05:41:21;102758.38;;;9.05;90.21
69784;BME280;57054;51.978;4.498;2023-05-19T05:43:46;102754.84;;;9.12;90.10
69784;BME280;57054;51.978;4.498;2023-05-19T05:46:12;102750.50;;;9.17;89.73
69784;BME280;57054;51.978;4.498;2023-05-19T05:48:37;102749.59;;;9.22;89.54
69784;BME280;57054;51.978;4.498;2023-05-19T05:51:06;102748.72;;;9.19;89.71
69784;BME280;57054;51.978;4.498;2023-05-19T05:53:34;102753.06;;;9.21;90.55
69784;BME280;57054;51.978;4.498;2023-05-19T05:56:01;102741.75;;;9.24;90.77
69784;BME280;57054;51.978;4.498;2023-05-19T05:58:27;102749.53;;;9.33;90.27
69784;BME280;57054;51.978;4.498;2023-05-19T06:00:52;102751.25;;;9.33;89.69
69784;BME280;57054;51.978;4.498;2023-05-19T06:03:21;102743.41;;;9.34;89.54
69784;BME280;57054;51.978;4.498;2023-05-19T06:05:48;102747.78;;;9.37;89.38
69784;BME280;57054;51.978;4.498;2023-05-19T06:08:13;102741.66;;;9.36;89.95
69784;BME280;57054;51.978;4.498;2023-05-19T06:10:39;102744.25;;;9.41;89.52
69784;BME280;57054;51.978;4.498;2023-05-19T06:13:05;102748.59;;;9.47;89.39
69784;BME280;57054;51.978;4.498;2023-05-19T06:15:31;102746.84;;;9.47;89.37
69784;BME280;57054;51.978;4.498;2023-05-19T06:17:56;102745.06;;;9.51;89.59
69784;BME280;57054;51.978;4.498;2023-05-19T06:20:22;102748.53;;;9.54;90.10
69784;BME280;57054;51.978;4.498;2023-05-19T06:22:48;102737.16;;;9.60;89.55
69784;BME280;57054;51.978;4.498;2023-05-19T06:25:13;102742.34;;;9.69;88.53
69784;BME280;57054;51.978;4.498;2023-05-19T06:27:39;102741.41;;;9.75;88.14
69784;BME280;57054;51.978;4.498;2023-05-19T06:30:05;102747.50;;;9.82;87.96
69784;BME280;57054;51.978;4.498;2023-05-19T06:32:32;102748.31;;;9.88;87.62
69784;BME280;57054;51.978;4.498;2023-05-19T06:34:58;102751.81;;;9.89;88.42
69784;BME280;57054;51.978;4.498;2023-05-19T06:37:23;102739.56;;;9.92;88.63
69784;BME280;57054;51.978;4.498;2023-05-19T06:39:50;102745.63;;;9.99;88.30
69784;BME280;57054;51.978;4.498;2023-05-19T06:42:19;102743.78;;;10.09;87.88
69784;BME280;57054;51.978;4.498;2023-05-19T06:44:48;102747.25;;;10.12;86.79
69784;BME280;57054;51.978;4.498;2023-05-19T06:47:14;102743.78;;;10.12;87.05
69784;BME280;57054;51.978;4.498;2023-05-19T06:49:39;102738.47;;;10.18;87.22
69784;BME280;57054;51.978;4.498;2023-05-19T06:52:04;102753.25;;;10.25;86.98
69784;BME280;57054;51.978;4.498;2023-05-19T06:54:30;102750.59;;;10.33;86.78
69784;BME280;57054;51.978;4.498;2023-05-19T06:56:55;102746.19;;;10.38;86.00
69784;BME280;57054;51.978;4.498;2023-05-19T06:59:21;102750.56;;;10.41;86.10
69784;BME280;57054;51.978;4.498;2023-05-19T07:01:47;102753.09;;;10.45;86.12
69784;BME280;57054;51.978;4.498;2023-05-19T07:04:12;102753.94;;;10.49;85.49
69784;BME280;57054;51.978;4.498;2023-05-19T07:06:38;102750.44;;;10.51;85.31
69784;BME280;57054;51.978;4.498;2023-05-19T07:09:03;102753.03;;;10.53;85.29
69784;BME280;57054;51.978;4.498;2023-05-19T07:11:29;102749.53;;;10.54;84.69
69784;BME280;57054;51.978;4.498;2023-05-19T07:13:55;102748.59;;;10.60;84.95
69784;BME280;57054;51.978;4.498;2023-05-19T07:16:20;102745.97;;;10.60;84.30
69784;BME280;57054;51.978;4.498;2023-05-19T07:18:46;102745.06;;;10.64;84.44
69784;BME280;57054;51.978;4.498;2023-05-19T07:21:11;102750.25;;;10.71;84.27
69784;BME280;57054;51.978;4.498;2023-05-19T07:23:37;102749.25;;;10.79;84.36
69784;BME280;57054;51.978;4.498;2023-05-19T07:26:02;102745.72;;;10.84;83.98
69784;BME280;57054;51.978;4.498;2023-05-19T07:28:27;102745.66;;;10.90;84.11
69784;BME280;57054;51.978;4.498;2023-05-19T07:30:53;102744.72;;;10.94;83.66
69784;BME280;57054;51.978;4.498;2023-05-19T07:33:18;102743.75;;;11.03;83.60
69784;BME280;57054;51.978;4.498;2023-05-19T07:35:44;102738.47;;;11.08;83.21
69784;BME280;57054;51.978;4.498;2023-05-19T07:38:10;102747.94;;;11.15;83.70
69784;BME280;57054;51.978;4.498;2023-05-19T07:40:36;102734.78;;;11.23;82.77
69784;BME280;57054;51.978;4.498;2023-05-19T07:43:01;102734.69;;;11.27;81.64
69784;BME280;57054;51.978;4.498;2023-05-19T07:45:27;102737.19;;;11.37;81.31
69784;BME280;57054;51.978;4.498;2023-05-19T07:47:52;102731.84;;;11.44;80.73
69784;BME280;57054;51.978;4.498;2023-05-19T07:50:18;102727.34;;;11.54;79.58
69784;BME280;57054;51.978;4.498;2023-05-19T07:52:44;102732.44;;;11.63;79.41
69784;BME280;57054;51.978;4.498;2023-05-19T07:55:09;102732.31;;;11.72;78.94
69784;BME280;57054;51.978;4.498;2023-05-19T07:57:36;102729.63;;;11.76;77.93
69784;BME280;57054;51.978;4.498;2023-05-19T08:00:01;102728.59;;;11.86;78.27
69784;BME280;57054;51.978;4.498;2023-05-19T08:02:32;102722.38;;;11.93;77.54
69784;BME280;57054;51.978;4.498;2023-05-19T08:04:57;102719.66;;;11.99;76.51
69784;BME280;57054;51.978;4.498;2023-05-19T08:07:23;102730.00;;;12.08;75.48
69784;BME280;57054;51.978;4.498;2023-05-19T08:09:48;102714.09;;;12.18;75.54
69784;BME280;57054;51.978;4.498;2023-05-19T08:12:14;102717.41;;;12.29;75.44
69784;BME280;57054;51.978;4.498;2023-05-19T08:14:39;102718.22;;;12.33;73.22
69784;BME280;57054;51.978;4.498;2023-05-19T08:17:05;102717.22;;;12.38;73.93
69784;BME280;57054;51.978;4.498;2023-05-19T08:19:30;102713.53;;;12.48;73.82
69784;BME280;57054;51.978;4.498;2023-05-19T08:21:56;102713.41;;;12.55;72.28
69784;BME280;57054;51.978;4.498;2023-05-19T08:24:22;102715.03;;;12.62;71.90
69784;BME280;57054;51.978;4.498;2023-05-19T08:26:47;102718.31;;;12.73;71.92
69784;BME280;57054;51.978;4.498;2023-05-19T08:29:13;102707.66;;;12.81;72.34
69784;BME280;57054;51.978;4.498;2023-05-19T08:31:39;102709.31;;;12.85;72.76
69784;BME280;57054;51.978;4.498;2023-05-19T08:34:04;102708.25;;;12.95;71.14
69784;BME280;57054;51.978;4.498;2023-05-19T08:36:30;102703.78;;;12.99;70.00
69784;BME280;57054;51.978;4.498;2023-05-19T08:38:55;102703.81;;;12.97;69.72
69784;BME280;57054;51.978;4.498;2023-05-19T08:41:21;102698.66;;;12.91;68.61
69784;BME280;57054;51.978;4.498;2023-05-19T08:43:47;102700.44;;;12.91;69.86
69784;BME280;57054;51.978;4.498;2023-05-19T08:46:15;102692.41;;;12.97;70.71
69784;BME280;57054;51.978;4.498;2023-05-19T08:48:42;102688.69;;;13.07;70.70
69784;BME280;57054;51.978;4.498;2023-05-19T08:54:19;102685.59;;;13.29;70.24
69784;BME280;57054;51.978;4.498;2023-05-19T08:56:49;102676.75;;;13.33;69.70
69784;BME280;57054;51.978;4.498;2023-05-19T08:59:16;102671.47;;;13.34;67.47
69784;BME280;57054;51.978;4.498;2023-05-19T09:01:44;102685.47;;;13.35;66.13
69784;BME280;57054;51.978;4.498;2023-05-19T09:04:10;102674.78;;;13.42;65.84
69784;BME280;57054;51.978;4.498;2023-05-19T09:06:36;102685.03;;;13.53;66.32
69784;BME280;57054;51.978;4.498;2023-05-19T09:09:05;102667.41;;;13.57;63.88
69784;BME280;57054;51.978;4.498;2023-05-19T09:11:32;102671.69;;;13.62;63.68
69784;BME280;57054;51.978;4.498;2023-05-19T09:13:58;102673.34;;;13.67;64.23
69784;BME280;57054;51.978;4.498;2023-05-19T09:16:23;102673.94;;;13.78;61.70
69784;BME280;57054;51.978;4.498;2023-05-19T09:18:56;102678.00;;;13.90;61.51
69784;BME280;57054;51.978;4.498;2023-05-19T09:21:31;102677.75;;;14.00;63.29
69784;BME280;57054;51.978;4.498;2023-05-19T09:24:03;102674.16;;;14.05;62.97
69784;BME280;57054;51.978;4.498;2023-05-19T09:26:35;102671.25;;;14.14;61.70
69784;BME280;57054;51.978;4.498;2023-05-19T09:29:09;102668.50;;;14.18;62.36
69784;BME280;57054;51.978;4.498;2023-05-19T09:31:35;102678.88;;;14.25;62.96
69784;BME280;57054;51.978;4.498;2023-05-19T09:34:00;102679.78;;;14.24;64.12
69784;BME280;57054;51.978;4.498;2023-05-19T09:36:28;102675.25;;;14.29;61.33
69784;BME280;57054;51.978;4.498;2023-05-19T09:38:53;102678.59;;;14.35;59.06
69784;BME280;57054;51.978;4.498;2023-05-19T09:41:19;102667.91;;;14.40;58.53
69784;BME280;57054;51.978;4.498;2023-05-19T09:43:53;102671.09;;;14.51;60.03
69784;BME280;57054;51.978;4.498;2023-05-19T09:46:23;102670.06;;;14.58;60.47
69784;BME280;57054;51.978;4.498;2023-05-19T09:48:56;102666.22;;;14.70;59.74
69784;BME280;57054;51.978;4.498;2023-05-19T09:51:22;102679.19;;;14.78;58.98
69784;BME280;57054;51.978;4.498;2023-05-19T09:53:48;102676.50;;;14.80;57.26
69784;BME280;57054;51.978;4.498;2023-05-19T09:56:13;102669.38;;;14.83;57.84
69784;BME280;57054;51.978;4.498;2023-05-19T09:58:41;102674.38;;;14.92;58.45
69784;BME280;57054;51.978;4.498;2023-05-19T10:01:07;102668.94;;;14.97;57.66
69784;BME280;57054;51.978;4.498;2023-05-19T10:03:33;102670.34;;;15.09;58.22
69784;BME280;57054;51.978;4.498;2023-05-19T10:06:00;102661.19;;;15.21;59.55
69784;BME280;57054;51.978;4.498;2023-05-19T10:08:27;102672.25;;;15.33;60.74
69784;BME280;57054;51.978;4.498;2023-05-19T10:10:54;102676.50;;;15.38;56.87
69784;BME280;57054;51.978;4.498;2023-05-19T10:13:21;102669.53;;;15.35;56.23
69784;BME280;57054;51.978;4.498;2023-05-19T10:15:51;102660.84;;;15.31;56.57
69784;BME280;57054;51.978;4.498;2023-05-19T10:18:18;102664.41;;;15.30;57.69
69784;BME280;57054;51.978;4.498;2023-05-19T10:20:43;102664.31;;;15.33;57.05
69784;BME280;57054;51.978;4.498;2023-05-19T10:23:10;102658.75;;;15.43;57.04
69784;BME280;57054;51.978;4.498;2023-05-19T10:25:36;102660.97;;;15.55;58.39
69784;BME280;57054;51.978;4.498;2023-05-19T10:28:12;102658.59;;;15.47;56.06
69784;BME280;57054;51.978;4.498;2023-05-19T10:30:40;102652.63;;;15.41;57.24
69784;BME280;57054;51.978;4.498;2023-05-19T10:33:10;102649.22;;;15.37;56.99
69784;BME280;57054;51.978;4.498;2023-05-19T10:36:01;102648.38;;;15.36;56.40
69784;BME280;57054;51.978;4.498;2023-05-19T10:38:40;102641.84;;;15.48;57.69
69784;BME280;57054;51.978;4.498;2023-05-19T10:44:30;102637.78;;;15.65;54.41
69784;BME280;57054;51.978;4.498;2023-05-19T10:46:59;102649.25;;;15.64;54.77
69784;BME280;57054;51.978;4.498;2023-05-19T10:49:24;102640.47;;;15.63;53.77
69784;BME280;57054;51.978;4.498;2023-05-19T10:51:56;102638.78;;;15.61;55.58
69784;BME280;57054;51.978;4.498;2023-05-19T10:54:41;102642.94;;;15.68;55.40
69784;BME280;57054;51.978;4.498;2023-05-19T10:57:07;102638.50;;;15.70;54.56
69784;BME280;57054;51.978;4.498;2023-05-19T10:59:35;102634.91;;;15.71;54.54
69784;BME280;57054;51.978;4.498;2023-05-19T11:02:05;102632.28;;;15.71;54.41
69784;BME280;57054;51.978;4.498;2023-05-19T11:04:48;102632.31;;;15.69;52.26
69784;BME280;57054;51.978;4.498;2023-05-19T11:07:21;102628.06;;;15.65;52.36
69784;BME280;57054;51.978;4.498;2023-05-19T11:09:49;102621.03;;;15.64;52.94
69784;BME280;57054;51.978;4.498;2023-05-19T11:12:19;102631.88;;;15.57;51.50
69784;BME280;57054;51.978;4.498;2023-05-19T11:14:46;102632.94;;;15.51;52.55
69784;BME280;57054;51.978;4.498;2023-05-19T11:17:13;102633.78;;;15.51;52.12
69784;BME280;57054;51.978;4.498;2023-05-19T11:19:51;102627.72;;;15.49;53.79
69784;BME280;57054;51.978;4.498;2023-05-19T11:22:16;102631.69;;;15.63;54.13
69784;BME280;57054;51.978;4.498;2023-05-19T11:24:44;102626.94;;;15.72;54.51
69784;BME280;57054;51.978;4.498;2023-05-19T11:27:28;102631.84;;;15.85;53.95
69784;BME280;57054;51.978;4.498;2023-05-19T11:29:59;102628.19;;;15.89;52.22
69784;BME280;57054;51.978;4.498;2023-05-19T11:32:28;102628.19;;;15.89;50.88
69784;BME280;57054;51.978;4.498;2023-05-19T11:34:54;102619.34;;;15.90;52.10
69784;BME280;57054;51.978;4.498;2023-05-19T11:37:19;102624.50;;;15.93;51.41
69784;BME280;57054;51.978;4.498;2023-05-19T11:39:45;102622.94;;;15.87;50.42
69784;BME280;57054;51.978;4.498;2023-05-19T11:42:11;102609.72;;;15.87;53.75
69784;BME280;57054;51.978;4.498;2023-05-19T11:44:37;102613.84;;;15.96;53.46
69784;BME280;57054;51.978;4.498;2023-05-19T11:47:03;102618.91;;;16.02;51.72
69784;BME280;57054;51.978;4.498;2023-05-19T11:49:29;102608.22;;;16.05;52.16
69784;BME280;57054;51.978;4.498;2023-05-19T11:51:55;102608.19;;;16.07;53.19
69784;BME280;57054;51.978;4.498;2023-05-19T11:54:20;102617.63;;;16.14;52.91
69784;BME280;57054;51.978;4.498;2023-05-19T11:56:46;102612.44;;;16.11;52.35
69784;BME280;57054;51.978;4.498;2023-05-19T11:59:11;102608.97;;;16.09;52.20
69784;BME280;57054;51.978;4.498;2023-05-19T12:01:37;102608.19;;;16.07;52.80
69784;BME280;57054;51.978;4.498;2023-05-19T12:04:07;102610.00;;;16.05;52.26
69784;BME280;57054;51.978;4.498;2023-05-19T12:06:33;102617.19;;;16.01;52.32
69784;BME280;57054;51.978;4.498;2023-05-19T12:08:59;102601.28;;;16.03;52.78
69784;BME280;57054;51.978;4.498;2023-05-19T12:11:26;102602.03;;;16.06;52.98
69784;BME280;57054;51.978;4.498;2023-05-19T12:13:54;102601.84;;;16.11;51.74
69784;BME280;57054;51.978;4.498;2023-05-19T12:16:22;102600.91;;;16.14;50.38
69784;BME280;57054;51.978;4.498;2023-05-19T12:18:48;102595.44;;;16.18;49.85
69784;BME280;57054;51.978;4.498;2023-05-19T12:21:14;102598.53;;;16.29;51.19
69784;BME280;57054;51.978;4.498;2023-05-19T12:23:40;102591.34;;;16.33;50.92
69784;BME280;57054;51.978;4.498;2023-05-19T12:26:06;102588.22;;;16.47;50.29
69784;BME280;57054;51.978;4.498;2023-05-19T12:28:32;102586.25;;;16.52;48.41
69784;BME280;57054;51.978;4.498;2023-05-19T12:30:58;102584.53;;;16.51;49.05
69784;BME280;57054;51.978;4.498;2023-05-19T12:33:23;102577.53;;;16.50;49.33
69784;BME280;57054;51.978;4.498;2023-05-19T12:35:49;102581.94;;;16.49;49.23
69784;BME280;57054;51.978;4.498;2023-05-19T12:38:15;102580.38;;;16.44;49.44
69784;BME280;57054;51.978;4.498;2023-05-19T12:40:42;102584.56;;;16.49;49.22
69784;BME280;57054;51.978;4.498;2023-05-19T12:43:17;102585.38;;;16.51;50.78
69784;BME280;57054;51.978;4.498;2023-05-19T12:45:43;102581.78;;;16.54;50.47
69784;BME280;57054;51.978;4.498;2023-05-19T12:48:11;102571.19;;;16.54;50.31
69784;BME280;57054;51.978;4.498;2023-05-19T12:50:39;102571.09;;;16.57;49.94
69784;BME280;57054;51.978;4.498;2023-05-19T12:53:10;102571.19;;;16.54;49.92
69784;BME280;57054;51.978;4.498;2023-05-19T12:55:40;102581.47;;;16.62;51.39
69784;BME280;57054;51.978;4.498;2023-05-19T12:58:07;102579.63;;;16.64;50.22
69784;BME280;57054;51.978;4.498;2023-05-19T13:00:39;102569.00;;;16.65;49.91
69784;BME280;57054;51.978;4.498;2023-05-19T13:03:06;102566.19;;;16.70;50.03
69784;BME280;57054;51.978;4.498;2023-05-19T13:05:37;102569.41;;;16.77;49.65
69784;BME280;57054;51.978;4.498;2023-05-19T13:08:10;102555.09;;;16.82;50.28
69784;BME280;57054;51.978;4.498;2023-05-19T13:10:38;102569.09;;;16.86;49.47
69784;BME280;57054;51.978;4.498;2023-05-19T13:13:05;102556.59;;;16.89;49.98
69784;BME280;57054;51.978;4.498;2023-05-19T13:15:32;102557.16;;;16.98;48.75